Normandie — FNNO — position and weather

sailwx.info

Track history (hours):
 
Tides and Currents Weather Stations Pressure Air Temp Water Temp Dewpoint Dewpoint Depression Visibility Wind Speed Wind Dir Waves Ship Positions

Normandie

Operator: Brittany Ferries

Last reported at 2017-May-28 16:31 UTC. Time now 2017-May-28 16:33 UTC.
Position N 50°07' W 000°41'.

Length 161 m; beam 27 m.

Type: Passenger vessel. MMSI: 227273000.

Date/timePositionNaut miles runAvg speedWind from/ knotsBaromVisibWave heightAir tempDewpointWater temp
2017-May-28 16:31N 50°07' W 000°41'1119.3
2017-May-28 15:57N 50°18' W 000°46'919.5
2017-May-28 15:30N 50°26' W 000°51'918.3
2017-May-28 15:00N 50°35' W 000°55'1615.8
2017-May-28 14:01N 50°48' W 001°07'1 1.4
2017-May-28 13:30N 50°49' W 001°06'0 0.0
2017-May-28 13:00N 50°49' W 001°06'0 0.0
2017-May-28 12:30N 50°49' W 001°06'1 2.4
2017-May-28 12:01N 50°48' W 001°07'815.6
2017-May-28 11:30N 50°41' W 000°60'1020.0
2017-May-28 11:00N 50°31' W 000°56'1019.0
2017-May-28 10:30N 50°23' W 000°50'1019.2
2017-May-28 10:00N 50°14' W 000°44'919.0
2017-May-28 09:30N 50°05' W 000°38'918.8
2017-May-28 09:00N 49°56' W 000°34'918.5
2017-May-28 08:30N 49°47' W 000°30'918.6
2017-May-28 08:00N 49°39' W 000°25'919.0
2017-May-28 07:30N 49°30' W 000°19'1019.1
2017-May-28 07:00N 49°21' W 000°15'3 6.9
2017-May-28 06:30N 49°17' W 000°15'0 0.0
2017-May-28 06:00N 49°17' W 000°15'0 0.0
2017-May-28 05:30N 49°17' W 000°15'0 0.0
2017-May-28 05:01N 49°17' W 000°15'0 0.5
2017-May-28 04:30N 49°18' W 000°15'815.5
2017-May-28 04:01N 49°25' W 000°16'917.5
2017-May-28 03:30N 49°33' W 000°21'816.7
2017-May-28 03:01N 49°41' W 000°26'816.4
2017-May-28 02:30N 49°48' W 000°32'816.4
2017-May-28 02:01N 49°56' W 000°37'815.1
2017-May-28 01:30N 50°03' W 000°39'714.9
2017-May-28 01:01N 50°10' W 000°44'815.2
2017-May-28 00:30N 50°17' W 000°50'814.8
2017-May-27 23:59N 50°24' W 000°53'815.2
2017-May-27 23:30N 50°32' W 000°53'715.2
2017-May-27 23:00N 50°38' W 000°58'713.9
2017-May-27 22:31N 50°44' W 001°04'5 9.5
2017-May-27 22:00N 50°49' W 001°06'0 0.2
2017-May-27 21:30N 50°49' W 001°06'0 0.0
2017-May-27 21:00N 50°49' W 001°06'0 0.0
2017-May-27 20:30N 50°49' W 001°06'1 2.9
2017-May-27 20:00N 50°47' W 001°07'612.8
2017-May-27 19:30N 50°43' W 000°59'918.8
2017-May-27 19:00N 50°34' W 000°55'1119.7
2017-May-27 18:26N 50°23' W 000°51'920.1
2017-May-27 18:00N 50°15' W 000°46'1020.5
2017-May-27 17:30N 50°06' W 000°39'1020.3
2017-May-27 17:00N 49°56' W 000°35'1020.7
2017-May-27 16:30N 49°46' W 000°29'1020.5
2017-May-27 16:00N 49°36' W 000°26'1020.9
2017-May-27 15:30N 49°27' W 000°18'918.3
2017-May-27 15:01N 49°18' W 000°15'1 1.5
2017-May-27 14:31N 49°17' W 000°15'0 0.0
2017-May-27 13:30N 49°17' W 000°15'0 0.3
2017-May-27 13:01N 49°17' W 000°15'917.2
2017-May-27 12:30N 49°26' W 000°15'1020.2
2017-May-27 12:01N 49°35' W 000°22'1020.2
2017-May-27 11:31N 49°45' W 000°27'1020.6
2017-May-27 11:00N 49°54' W 000°33'1020.9
2017-May-27 10:30N 50°04' W 000°40'2719.7
2017-May-27 09:10N 50°29' W 000°52'320.3
2017-May-27 08:59N 50°32' W 000°54'918.5
2017-May-27 08:31N 50°41' W 000°58'816.9
2017-May-27 08:00N 50°47' W 001°07'1 2.9
2017-May-27 07:30N 50°49' W 001°06'0 0.0
2017-May-27 07:00N 50°49' W 001°06'0 0.0
2017-May-27 06:30N 50°49' W 001°06'0 0.0
2017-May-27 06:00N 50°49' W 001°06'1 1.7
2017-May-27 05:30N 50°48' W 001°07'613.0
2017-May-27 05:01N 50°43' W 001°01'713.8
2017-May-27 04:30N 50°36' W 000°58'612.0
2017-May-27 04:00N 50°31' W 000°54'2011.7
2017-May-27 02:19N 50°12' W 000°43'412.1
2017-May-27 02:00N 50°09' W 000°40'612.3
2017-May-27 01:29N 50°03' W 000°37'612.1
2017-May-27 01:00N 49°57' W 000°34'611.9
2017-May-27 00:30N 49°52' W 000°32'611.8
2017-May-27 00:00N 49°46' W 000°29'611.5
2017-May-26 23:30N 49°41' W 000°26'611.3
2017-May-26 23:00N 49°35' W 000°23'611.1
2017-May-26 22:30N 49°30' W 000°20'511.0
2017-May-26 22:00N 49°25' W 000°17'510.7
2017-May-26 21:30N 49°20' W 000°14'3 5.1
2017-May-26 21:00N 49°17' W 000°15'0 0.0
2017-May-26 20:30N 49°17' W 000°15'0 0.0
2017-May-26 20:00N 49°17' W 000°15'0 0.0
2017-May-26 19:30N 49°17' W 000°15'3 5.2
2017-May-26 19:01N 49°20' W 000°14'1019.7
2017-May-26 18:31N 49°29' W 000°19'1020.3
2017-May-26 18:01N 49°39' W 000°23'1020.1
2017-May-26 17:31N 49°48' W 000°29'1019.9
2017-May-26 17:00N 49°58' W 000°35'1019.4
2017-May-26 16:30N 50°07' W 000°39'1218.3
2017-May-26 15:51N 50°18' W 000°46'719.2
2017-May-26 15:30N 50°24' W 000°50'1019.2
2017-May-26 15:01N 50°33' W 000°55'918.9
2017-May-26 14:30N 50°42' W 001°01'7 7.5
2017-May-26 13:30N 50°49' W 001°06'0 0.0
2017-May-26 13:00N 50°49' W 001°06'0 0.0
2017-May-26 12:30N 50°49' W 001°06'0 0.2
2017-May-26 12:01N 50°49' W 001°06'5 9.7
2017-May-26 11:30N 50°44' W 001°04'1019.3
2017-May-26 11:01N 50°36' W 000°56'1019.9
2017-May-26 10:31N 50°26' W 000°51'1020.0
2017-May-26 10:00N 50°17' W 000°46'1019.5
2017-May-26 09:30N 50°08' W 000°40'919.2
2017-May-26 09:00N 49°59' W 000°35'1019.2
2017-May-26 08:30N 49°50' W 000°30'1019.2
2017-May-26 08:00N 49°41' W 000°25'1019.4
2017-May-26 07:31N 49°31' W 000°20'918.9
2017-May-26 07:00N 49°23' W 000°15'510.6
2017-May-26 06:31N 49°17' W 000°15'0 0.0
2017-May-26 06:01N 49°17' W 000°15'0 0.0
2017-May-26 05:31N 49°17' W 000°15'0 0.0
2017-May-26 05:01N 49°17' W 000°15'0 0.2
2017-May-26 04:31N 49°17' W 000°15'612.2
2017-May-26 04:00N 49°24' W 000°15'918.3
2017-May-26 03:30N 49°32' W 000°19'918.4
2017-May-26 03:00N 49°41' W 000°25'918.3
2017-May-26 02:31N 49°49' W 000°31'918.3
2017-May-26 02:00N 49°57' W 000°36'816.6
2017-May-26 01:31N 50°05' W 000°41'714.4
2017-May-26 01:01N 50°12' W 000°45'714.6
2017-May-26 00:30N 50°19' W 000°48'714.9
2017-May-26 00:01N 50°26' W 000°53'714.6
2017-May-25 23:30N 50°32' W 000°57'715.2
2017-May-25 23:01N 50°40' W 001°00'713.4
2017-May-25 22:31N 50°46' W 001°05'3 6.2
2017-May-25 22:01N 50°49' W 001°06'0 0.0
2017-May-25 21:30N 50°49' W 001°06'0 0.0
2017-May-25 21:01N 50°49' W 001°06'0 0.0
2017-May-25 20:30N 50°49' W 001°06'1 2.2
2017-May-25 20:00N 50°48' W 001°07'713.5
2017-May-25 19:30N 50°43' W 000°59'918.4
2017-May-25 19:00N 50°34' W 000°56'1019.0
2017-May-25 18:30N 50°25' W 000°51'1019.6
2017-May-25 18:00N 50°16' W 000°46'1019.3
2017-May-25 17:30N 50°07' W 000°40'1019.7
2017-May-25 17:00N 49°58' W 000°35'1019.7
2017-May-25 16:30N 49°48' W 000°30'1019.9
2017-May-25 16:00N 49°39' W 000°25'1019.5
2017-May-25 15:30N 49°29' W 000°21'1019.4
2017-May-25 15:01N 49°21' W 000°15'3 6.5
2017-May-25 14:31N 49°17' W 000°15'0 0.0
2017-May-25 13:30N 49°17' W 000°15'0 0.0
2017-May-25 13:00N 49°17' W 000°15'510.4
2017-May-25 12:31N 49°23' W 000°14'1019.1
2017-May-25 12:01N 49°32' W 000°18'1019.3
2017-May-25 11:30N 49°41' W 000°24'1019.6
2017-May-25 11:00N 49°50' W 000°29'1019.9
2017-May-25 10:31N 49°59' W 000°36'918.8
2017-May-25 10:01N 50°08' W 000°40'918.8
2017-May-25 09:30N 50°17' W 000°44'918.5
2017-May-25 09:00N 50°25' W 000°50'918.8
2017-May-25 08:30N 50°34' W 000°56'917.3
2017-May-25 08:00N 50°42' W 001°02'714.0
2017-May-25 07:30N 50°48' W 001°07'1 1.8
2017-May-25 07:00N 50°49' W 001°06'0 0.0
2017-May-25 06:30N 50°49' W 001°06'0 0.0
2017-May-25 06:01N 50°49' W 001°06'0 0.2
2017-May-25 05:31N 50°49' W 001°06'511.0
2017-May-25 05:01N 50°44' W 001°02'713.9
2017-May-25 04:30N 50°37' W 000°58'611.7
2017-May-25 04:00N 50°32' W 000°55'612.0
2017-May-25 03:31N 50°26' W 000°53'611.7
2017-May-25 03:01N 50°21' W 000°49'712.5
2017-May-25 02:26N 50°14' W 000°43'511.6
2017-May-25 01:59N 50°10' W 000°40'611.6
2017-May-25 01:30N 50°05' W 000°37'611.6
2017-May-25 01:00N 49°59' W 000°34'611.5
2017-May-25 00:31N 49°54' W 000°32'611.7
2017-May-25 00:00N 49°48' W 000°30'611.9
2017-May-24 23:31N 49°42' W 000°26'611.8
2017-May-24 23:00N 49°37' W 000°22'611.2
2017-May-24 22:31N 49°32' W 000°18'510.7
2017-May-24 22:00N 49°27' W 000°16'510.4
2017-May-24 21:31N 49°22' W 000°15'5 9.1
2017-May-24 21:00N 49°17' W 000°15'0 0.0
2017-May-24 20:30N 49°17' W 000°15'0 0.0
2017-May-24 20:00N 49°17' W 000°15'0 0.0
2017-May-24 19:30N 49°17' W 000°15'0 0.0
2017-May-24 19:00N 49°17' W 000°15'0 0.0
2017-May-24 18:30N 49°17' W 000°15'0 0.0
2017-May-24 18:00N 49°17' W 000°15'0 0.0
2017-May-24 17:30N 49°17' W 000°15'0 0.0
2017-May-24 17:00N 49°17' W 000°15'0 0.0
2017-May-24 16:30N 49°17' W 000°15'0 0.0
2017-May-24 16:00N 49°17' W 000°15'0 0.0
2017-May-24 15:30N 49°17' W 000°15'0 0.0
2017-May-24 15:00N 49°17' W 000°15'0 0.0
2017-May-24 14:30N 49°17' W 000°15'0 0.0
2017-May-24 13:30N 49°17' W 000°15'0 0.0
2017-May-24 13:00N 49°17' W 000°15'5 9.8
2017-May-24 12:30N 49°22' W 000°14'918.3
2017-May-24 12:01N 49°31' W 000°18'1019.2
2017-May-24 11:30N 49°40' W 000°22'918.9
2017-May-24 11:00N 49°49' W 000°28'1019.3
2017-May-24 10:30N 49°58' W 000°34'1019.6
2017-May-24 10:00N 50°07' W 000°39'1019.8
2017-May-24 09:29N 50°17' W 000°44'1019.9
2017-May-24 08:59N 50°26' W 000°49'1020.1
2017-May-24 08:29N 50°35' W 000°57'918.4
2017-May-24 08:01N 50°43' W 001°03'612.0
2017-May-24 07:30N 50°48' W 001°07'1 1.6
2017-May-24 07:01N 50°49' W 001°06'0 0.0
2017-May-24 06:31N 50°49' W 001°06'0 0.0
2017-May-24 06:01N 50°49' W 001°06'0 0.4
2017-May-24 05:31N 50°49' W 001°06'611.4
2017-May-24 05:00N 50°44' W 001°02'815.5
2017-May-24 04:30N 50°36' W 000°57'713.3
2017-May-24 04:00N 50°30' W 000°55'2911.7
2017-May-24 01:33N 50°03' W 000°38'111.9
2017-May-24 01:28N 50°02' W 000°37'611.7
2017-May-24 00:59N 49°57' W 000°33'611.9
2017-May-24 00:30N 49°52' W 000°30'611.6
2017-May-24 00:00N 49°47' W 000°27'611.5
2017-May-23 23:30N 49°41' W 000°24'611.3
2017-May-23 23:00N 49°36' W 000°21'510.9
2017-May-23 22:30N 49°31' W 000°20'611.0
2017-May-23 22:00N 49°26' W 000°17'510.6
2017-May-23 21:30N 49°20' W 000°14'3 6.3
2017-May-23 21:00N 49°17' W 000°15'0 0.0
2017-May-23 20:30N 49°17' W 000°15'0 0.0
2017-May-23 20:00N 49°17' W 000°15'0 0.0
2017-May-23 19:30N 49°17' W 000°15'4 7.6
2017-May-23 19:00N 49°21' W 000°14'1020.2
2017-May-23 18:30N 49°31' W 000°18'1020.4
2017-May-23 18:00N 49°41' W 000°23'1121.0
2017-May-23 17:30N 49°50' W 000°29'1121.0
2017-May-23 17:00N 50°00' W 000°35'2420.5
2017-May-23 15:51N 50°23' W 000°47'720.0
2017-May-23 15:29N 50°29' W 000°51'919.7
2017-May-23 15:00N 50°38' W 000°58'815.7
2017-May-23 14:31N 50°44' W 001°05'4 4.4
2017-May-23 13:30N 50°49' W 001°06'0 0.0
2017-May-23 13:00N 50°49' W 001°06'0 0.0
2017-May-23 12:30N 50°49' W 001°06'0 0.2
2017-May-23 12:01N 50°49' W 001°06'4 8.8
2017-May-23 11:31N 50°44' W 001°04'917.9
2017-May-23 11:00N 50°36' W 000°58'1020.0
2017-May-23 10:30N 50°27' W 000°54'1020.1
2017-May-23 10:00N 50°17' W 000°48'1120.3
2017-May-23 09:28N 50°07' W 000°42'920.0
2017-May-23 09:00N 49°59' W 000°36'1019.8
2017-May-23 08:30N 49°49' W 000°31'1019.5
2017-May-23 08:01N 49°40' W 000°25'1019.7
2017-May-23 07:30N 49°31' W 000°21'1019.2
2017-May-23 07:00N 49°22' W 000°15'5 9.4
2017-May-23 06:31N 49°17' W 000°15'0 0.0
2017-May-23 06:00N 49°17' W 000°15'0 0.0
2017-May-23 05:30N 49°17' W 000°15'0 0.0
2017-May-23 05:01N 49°17' W 000°15'0 0.2
2017-May-23 04:30N 49°17' W 000°15'713.3
2017-May-23 04:01N 49°24' W 000°16'815.8
2017-May-23 03:31N 49°31' W 000°21'815.7
2017-May-23 03:01N 49°38' W 000°25'815.5
2017-May-23 02:30N 49°46' W 000°27'815.5
2017-May-23 02:00N 49°53' W 000°31'815.1
2017-May-23 01:30N 50°00' W 000°36'714.8
2017-May-23 01:00N 50°07' W 000°40'815.0
2017-May-23 00:30N 50°14' W 000°45'715.1
2017-May-23 00:00N 50°21' W 000°49'815.2
2017-May-22 23:30N 50°28' W 000°53'714.9
2017-May-22 23:01N 50°35' W 000°57'815.1
2017-May-22 22:30N 50°42' W 001°02'713.7
2017-May-22 22:01N 50°48' W 001°07'1 1.6
2017-May-22 21:30N 50°49' W 001°06'0 0.0
2017-May-22 21:00N 50°49' W 001°06'0 0.0
2017-May-22 20:30N 50°49' W 001°06'1 2.4
2017-May-22 20:01N 50°48' W 001°07'815.5
2017-May-22 19:30N 50°41' W 000°60'1019.5
2017-May-22 19:01N 50°32' W 000°54'1019.2
2017-May-22 18:31N 50°23' W 000°48'1919.3
2017-May-22 17:31N 50°05' W 000°38'018.8
2017-May-22 17:30N 50°05' W 000°38'918.8
2017-May-22 17:00N 49°56' W 000°33'1019.2
2017-May-22 16:31N 49°47' W 000°30'1019.1
2017-May-22 16:01N 49°38' W 000°26'1019.0
2017-May-22 15:31N 49°29' W 000°20'918.8
2017-May-22 15:00N 49°20' W 000°15'3 3.0
2017-May-22 14:01N 49°17' W 000°15'0 0.0
2017-May-22 13:31N 49°17' W 000°15'0 0.0
2017-May-22 13:00N 49°17' W 000°15'1 2.1
2017-May-22 12:31N 49°18' W 000°15'917.5
2017-May-22 12:01N 49°27' W 000°17'1019.2
2017-May-22 11:30N 49°36' W 000°23'918.9
2017-May-22 11:01N 49°44' W 000°30'919.0
2017-May-22 10:31N 49°53' W 000°36'918.9
2017-May-22 10:00N 50°01' W 000°42'1019.0
2017-May-22 09:30N 50°10' W 000°47'919.0
2017-May-22 09:01N 50°20' W 000°49'1019.4
2017-May-22 08:31N 50°29' W 000°54'1019.3
2017-May-22 08:01N 50°38' W 000°60'917.5
2017-May-22 07:31N 50°46' W 001°05'3 6.1
2017-May-22 07:01N 50°49' W 001°06'0 0.0
2017-May-22 06:30N 50°49' W 001°06'0 0.0
2017-May-22 06:01N 50°49' W 001°06'0 0.0
2017-May-22 05:31N 50°49' W 001°06'3 7.0
2017-May-22 05:00N 50°45' W 001°05'816.9
2017-May-22 04:31N 50°38' W 000°58'611.1
2017-May-22 04:00N 50°33' W 000°55'510.7
2017-May-22 03:30N 50°28' W 000°51'611.4
2017-May-22 03:00N 50°23' W 000°48'611.8
2017-May-22 02:30N 50°17' W 000°44'611.5
2017-May-22 02:00N 50°12' W 000°41'611.9
2017-May-22 01:30N 50°06' W 000°39'611.9
2017-May-22 01:00N 50°00' W 000°36'612.1
2017-May-22 00:30N 49°55' W 000°33'612.0
2017-May-22 00:00N 49°49' W 000°30'612.1
2017-May-21 23:30N 49°43' W 000°27'612.4
2017-May-21 23:00N 49°38' W 000°23'611.8
2017-May-21 22:30N 49°32' W 000°19'612.0
2017-May-21 22:00N 49°27' W 000°17'611.8
2017-May-21 21:30N 49°21' W 000°14'4 7.2
2017-May-21 21:00N 49°17' W 000°15'0 0.0
2017-May-21 20:30N 49°17' W 000°15'0 0.0
2017-May-21 20:00N 49°17' W 000°15'0 0.0
2017-May-21 19:30N 49°17' W 000°15'3 6.6
2017-May-21 19:00N 49°21' W 000°14'918.9
2017-May-21 18:31N 49°29' W 000°20'918.1
2017-May-21 18:00N 49°38' W 000°25'917.2
2017-May-21 17:30N 49°46' W 000°30'917.3
2017-May-21 17:01N 49°54' W 000°33'1019.1
2017-May-21 16:30N 50°03' W 000°38'918.9
2017-May-21 16:00N 50°12' W 000°43'918.7
2017-May-21 15:30N 50°21' W 000°48'918.5
2017-May-21 15:00N 50°30' W 000°52'918.4
2017-May-21 14:30N 50°38' W 000°57'1211.7
2017-May-21 13:30N 50°49' W 001°06'0 0.0
2017-May-21 13:00N 50°49' W 001°06'0 0.0
2017-May-21 12:30N 50°49' W 001°06'1 1.1
2017-May-21 12:00N 50°49' W 001°07'612.0
2017-May-21 11:31N 50°43' W 001°02'917.3
2017-May-21 11:00N 50°35' W 000°57'918.5
2017-May-21 10:30N 50°27' W 000°51'918.1
2017-May-21 10:00N 50°18' W 000°47'918.6
2017-May-21 09:30N 50°09' W 000°44'1019.3
2017-May-21 09:00N 50°00' W 000°38'1019.2
2017-May-21 08:30N 49°51' W 000°33'1019.1
2017-May-21 08:00N 49°42' W 000°28'1019.4
2017-May-21 07:30N 49°33' W 000°22'1019.2
2017-May-21 07:01N 49°24' W 000°17'714.1
2017-May-21 06:30N 49°17' W 000°15'0 0.0
2017-May-21 06:00N 49°17' W 000°15'0 0.0
2017-May-21 05:30N 49°17' W 000°15'0 0.0
2017-May-21 05:00N 49°17' W 000°15'0 0.1
2017-May-21 04:30N 49°17' W 000°15'611.8
2017-May-21 04:01N 49°23' W 000°16'612.0
2017-May-21 03:31N 49°28' W 000°21'612.3
2017-May-21 03:01N 49°34' W 000°24'612.6
2017-May-21 02:31N 49°40' W 000°27'612.2
2017-May-21 02:00N 49°46' W 000°28'713.5
2017-May-21 01:30N 49°53' W 000°31'714.2
2017-May-21 01:00N 49°59' W 000°35'816.4
2017-May-21 00:30N 50°07' W 000°39'816.7
2017-May-21 00:00N 50°15' W 000°44'916.6
2017-May-20 23:27N 50°23' W 000°50'916.5
2017-May-20 22:53N 50°32' W 000°55'616.5
2017-May-20 22:30N 50°38' W 000°58'816.2
2017-May-20 22:01N 50°45' W 001°05'4 8.0
2017-May-20 21:30N 50°49' W 001°06'0 0.0
2017-May-20 21:00N 50°49' W 001°06'0 0.0
2017-May-20 20:30N 50°49' W 001°06'0 0.2
2017-May-20 20:00N 50°49' W 001°06'5 9.1
2017-May-20 19:30N 50°44' W 001°04'918.1
2017-May-20 19:00N 50°36' W 000°58'1018.7
2017-May-20 18:29N 50°27' W 000°52'2218.7
2017-May-20 17:20N 50°07' W 000°39'619.3
2017-May-20 17:00N 50°01' W 000°35'1019.3
2017-May-20 16:30N 49°52' W 000°30'1019.1
2017-May-20 16:00N 49°44' W 000°24'917.6
2017-May-20 15:30N 49°36' W 000°18'918.0
2017-May-20 15:00N 49°27' W 000°16'817.0
2017-May-20 14:30N 49°18' W 000°15'1 1.1
2017-May-20 13:31N 49°17' W 000°15'0 0.0
2017-May-20 13:00N 49°17' W 000°15'2 4.5
2017-May-20 12:30N 49°20' W 000°14'918.3
2017-May-20 12:00N 49°29' W 000°17'918.6
2017-May-20 11:30N 49°37' W 000°25'918.7
2017-May-20 11:00N 49°46' W 000°28'918.6
2017-May-20 10:30N 49°55' W 000°32'918.3
2017-May-20 10:00N 50°03' W 000°38'3118.3
2017-May-20 08:19N 50°32' W 000°56'618.3
2017-May-20 08:00N 50°37' W 000°59'918.0
2017-May-20 07:31N 50°45' W 001°05'4 7.4
2017-May-20 07:00N 50°49' W 001°06'0 0.0
2017-May-20 06:30N 50°49' W 001°06'0 0.0
2017-May-20 06:00N 50°49' W 001°06'0 0.2
2017-May-20 05:31N 50°49' W 001°06'5 9.3
2017-May-20 05:00N 50°44' W 001°04'816.2
2017-May-20 04:30N 50°37' W 000°57'612.1
2017-May-20 04:00N 50°32' W 000°52'3211.6
2017-May-20 01:15N 50°02' W 000°37'312.0
2017-May-20 00:59N 49°58' W 000°36'511.3
2017-May-20 00:30N 49°53' W 000°34'611.3
2017-May-20 00:00N 49°48' W 000°32'611.4
2017-May-19 23:30N 49°42' W 000°29'611.5
2017-May-19 23:00N 49°37' W 000°27'611.6
2017-May-19 22:30N 49°32' W 000°22'611.8
2017-May-19 22:00N 49°27' W 000°17'611.5
2017-May-19 21:30N 49°21' W 000°15'4 8.0
2017-May-19 21:00N 49°17' W 000°15'0 0.0
2017-May-19 20:30N 49°17' W 000°15'0 0.0
2017-May-19 20:00N 49°17' W 000°15'0 0.0
2017-May-19 19:30N 49°17' W 000°15'3 5.8
2017-May-19 19:00N 49°20' W 000°14'918.6
2017-May-19 18:31N 49°29' W 000°18'816.1
2017-May-19 18:00N 49°37' W 000°22'816.3
2017-May-19 17:31N 49°45' W 000°26'816.8
2017-May-19 17:01N 49°52' W 000°31'1020.6
2017-May-19 16:30N 50°02' W 000°36'2720.3
2017-May-19 15:11N 50°27' W 000°51'419.6
2017-May-19 14:58N 50°31' W 000°53'1717.5
2017-May-19 14:01N 50°46' W 001°05'3 5.1
2017-May-19 13:30N 50°49' W 001°06'0 0.0
2017-May-19 13:00N 50°49' W 001°06'0 0.0
2017-May-19 12:30N 50°49' W 001°06'0 0.4
2017-May-19 12:00N 50°49' W 001°06'510.9
2017-May-19 11:31N 50°44' W 001°03'917.1
2017-May-19 11:00N 50°36' W 000°57'1019.8
2017-May-19 10:30N 50°27' W 000°52'2619.4
2017-May-19 09:10N 50°02' W 000°38'319.6
2017-May-19 09:00N 49°59' W 000°37'1019.6
2017-May-19 08:30N 49°50' W 000°32'1019.6
2017-May-19 08:00N 49°41' W 000°27'1019.4
2017-May-19 07:31N 49°32' W 000°21'1019.8
2017-May-19 07:00N 49°22' W 000°16'510.0
2017-May-19 06:30N 49°17' W 000°15'0 0.0
2017-May-19 06:00N 49°17' W 000°15'0 0.0
2017-May-19 05:30N 49°17' W 000°15'0 0.0
2017-May-19 05:00N 49°17' W 000°15'0 0.2
2017-May-19 04:30N 49°17' W 000°15'714.7
2017-May-19 04:01N 49°25' W 000°15'917.7
2017-May-19 03:30N 49°33' W 000°21'816.7
2017-May-19 03:01N 49°40' W 000°26'916.8
2017-May-19 02:30N 49°48' W 000°30'816.9
2017-May-19 02:00N 49°56' W 000°35'816.8
2017-May-19 01:30N 50°04' W 000°39'2416.7
2017-May-19 00:03N 50°27' W 000°51'216.9
2017-May-18 23:56N 50°29' W 000°53'716.6
2017-May-18 23:31N 50°35' W 000°57'815.9
2017-May-18 23:01N 50°43' W 001°02'613.0
2017-May-18 22:31N 50°48' W 001°07'1 1.3
2017-May-18 22:01N 50°49' W 001°06'0 0.0
2017-May-18 21:30N 50°49' W 001°06'0 0.0
2017-May-18 21:00N 50°49' W 001°06'0 0.0
2017-May-18 20:31N 50°49' W 001°06'1 2.9
2017-May-18 20:01N 50°47' W 001°07'510.9
2017-May-18 19:30N 50°43' W 001°02'918.4
2017-May-18 19:00N 50°34' W 000°57'3619.7
2017-May-18 17:12N 50°00' W 000°38'419.9
2017-May-18 17:00N 49°57' W 000°36'  
Track history (hours):
 
Tides and Currents Weather Stations Pressure Air Temp Water Temp Dewpoint Dewpoint Depression Visibility Wind Speed Wind Dir Waves Ship Positions

Normandie

Operator: Brittany Ferries

Last reported at 2017-May-28 16:31 UTC. Time now 2017-May-28 16:33 UTC.
Position N 50°07' W 000°41'.

Length 161 m; beam 27 m.

Type: Passenger vessel. MMSI: 227273000.

Date/timePositionNaut miles runAvg speedWind from/ knotsBaromVisibWave heightAir tempDewpointWater temp
2017-May-28 16:31N 50°07' W 000°41'1119.3
2017-May-28 15:57N 50°18' W 000°46'919.5
2017-May-28 15:30N 50°26' W 000°51'918.3
2017-May-28 15:00N 50°35' W 000°55'1615.8
2017-May-28 14:01N 50°48' W 001°07'1 1.4
2017-May-28 13:30N 50°49' W 001°06'0 0.0
2017-May-28 13:00N 50°49' W 001°06'0 0.0
2017-May-28 12:30N 50°49' W 001°06'1 2.4
2017-May-28 12:01N 50°48' W 001°07'815.6
2017-May-28 11:30N 50°41' W 000°60'1020.0
2017-May-28 11:00N 50°31' W 000°56'1019.0
2017-May-28 10:30N 50°23' W 000°50'1019.2
2017-May-28 10:00N 50°14' W 000°44'919.0
2017-May-28 09:30N 50°05' W 000°38'918.8
2017-May-28 09:00N 49°56' W 000°34'918.5
2017-May-28 08:30N 49°47' W 000°30'918.6
2017-May-28 08:00N 49°39' W 000°25'919.0
2017-May-28 07:30N 49°30' W 000°19'1019.1
2017-May-28 07:00N 49°21' W 000°15'3 6.9
2017-May-28 06:30N 49°17' W 000°15'0 0.0
2017-May-28 06:00N 49°17' W 000°15'0 0.0
2017-May-28 05:30N 49°17' W 000°15'0 0.0
2017-May-28 05:01N 49°17' W 000°15'0 0.5
2017-May-28 04:30N 49°18' W 000°15'815.5
2017-May-28 04:01N 49°25' W 000°16'917.5
2017-May-28 03:30N 49°33' W 000°21'816.7
2017-May-28 03:01N 49°41' W 000°26'816.4
2017-May-28 02:30N 49°48' W 000°32'816.4
2017-May-28 02:01N 49°56' W 000°37'815.1
2017-May-28 01:30N 50°03' W 000°39'714.9
2017-May-28 01:01N 50°10' W 000°44'815.2
2017-May-28 00:30N 50°17' W 000°50'814.8
2017-May-27 23:59N 50°24' W 000°53'815.2
2017-May-27 23:30N 50°32' W 000°53'715.2
2017-May-27 23:00N 50°38' W 000°58'713.9
2017-May-27 22:31N 50°44' W 001°04'5 9.5
2017-May-27 22:00N 50°49' W 001°06'0 0.2
2017-May-27 21:30N 50°49' W 001°06'0 0.0
2017-May-27 21:00N 50°49' W 001°06'0 0.0
2017-May-27 20:30N 50°49' W 001°06'1 2.9
2017-May-27 20:00N 50°47' W 001°07'612.8
2017-May-27 19:30N 50°43' W 000°59'918.8
2017-May-27 19:00N 50°34' W 000°55'1119.7
2017-May-27 18:26N 50°23' W 000°51'920.1
2017-May-27 18:00N 50°15' W 000°46'1020.5
2017-May-27 17:30N 50°06' W 000°39'1020.3
2017-May-27 17:00N 49°56' W 000°35'1020.7
2017-May-27 16:30N 49°46' W 000°29'1020.5
2017-May-27 16:00N 49°36' W 000°26'1020.9
2017-May-27 15:30N 49°27' W 000°18'918.3
2017-May-27 15:01N 49°18' W 000°15'1 1.5
2017-May-27 14:31N 49°17' W 000°15'0 0.0
2017-May-27 13:30N 49°17' W 000°15'0 0.3
2017-May-27 13:01N 49°17' W 000°15'917.2
2017-May-27 12:30N 49°26' W 000°15'1020.2
2017-May-27 12:01N 49°35' W 000°22'1020.2
2017-May-27 11:31N 49°45' W 000°27'1020.6
2017-May-27 11:00N 49°54' W 000°33'1020.9
2017-May-27 10:30N 50°04' W 000°40'2719.7
2017-May-27 09:10N 50°29' W 000°52'320.3
2017-May-27 08:59N 50°32' W 000°54'918.5
2017-May-27 08:31N 50°41' W 000°58'816.9
2017-May-27 08:00N 50°47' W 001°07'1 2.9
2017-May-27 07:30N 50°49' W 001°06'0 0.0
2017-May-27 07:00N 50°49' W 001°06'0 0.0
2017-May-27 06:30N 50°49' W 001°06'0 0.0
2017-May-27 06:00N 50°49' W 001°06'1 1.7
2017-May-27 05:30N 50°48' W 001°07'613.0
2017-May-27 05:01N 50°43' W 001°01'713.8
2017-May-27 04:30N 50°36' W 000°58'612.0
2017-May-27 04:00N 50°31' W 000°54'2011.7
2017-May-27 02:19N 50°12' W 000°43'412.1
2017-May-27 02:00N 50°09' W 000°40'612.3
2017-May-27 01:29N 50°03' W 000°37'612.1
2017-May-27 01:00N 49°57' W 000°34'611.9
2017-May-27 00:30N 49°52' W 000°32'611.8
2017-May-27 00:00N 49°46' W 000°29'611.5
2017-May-26 23:30N 49°41' W 000°26'611.3
2017-May-26 23:00N 49°35' W 000°23'611.1
2017-May-26 22:30N 49°30' W 000°20'511.0
2017-May-26 22:00N 49°25' W 000°17'510.7
2017-May-26 21:30N 49°20' W 000°14'3 5.1
2017-May-26 21:00N 49°17' W 000°15'0 0.0
2017-May-26 20:30N 49°17' W 000°15'0 0.0
2017-May-26 20:00N 49°17' W 000°15'0 0.0
2017-May-26 19:30N 49°17' W 000°15'3 5.2
2017-May-26 19:01N 49°20' W 000°14'1019.7
2017-May-26 18:31N 49°29' W 000°19'1020.3
2017-May-26 18:01N 49°39' W 000°23'1020.1
2017-May-26 17:31N 49°48' W 000°29'1019.9
2017-May-26 17:00N 49°58' W 000°35'1019.4
2017-May-26 16:30N 50°07' W 000°39'1218.3
2017-May-26 15:51N 50°18' W 000°46'719.2
2017-May-26 15:30N 50°24' W 000°50'1019.2
2017-May-26 15:01N 50°33' W 000°55'918.9
2017-May-26 14:30N 50°42' W 001°01'7 7.5
2017-May-26 13:30N 50°49' W 001°06'0 0.0
2017-May-26 13:00N 50°49' W 001°06'0 0.0
2017-May-26 12:30N 50°49' W 001°06'0 0.2
2017-May-26 12:01N 50°49' W 001°06'5 9.7
2017-May-26 11:30N 50°44' W 001°04'1019.3
2017-May-26 11:01N 50°36' W 000°56'1019.9
2017-May-26 10:31N 50°26' W 000°51'1020.0
2017-May-26 10:00N 50°17' W 000°46'1019.5
2017-May-26 09:30N 50°08' W 000°40'919.2
2017-May-26 09:00N 49°59' W 000°35'1019.2
2017-May-26 08:30N 49°50' W 000°30'1019.2
2017-May-26 08:00N 49°41' W 000°25'1019.4
2017-May-26 07:31N 49°31' W 000°20'918.9
2017-May-26 07:00N 49°23' W 000°15'510.6
2017-May-26 06:31N 49°17' W 000°15'0 0.0
2017-May-26 06:01N 49°17' W 000°15'0 0.0
2017-May-26 05:31N 49°17' W 000°15'0 0.0
2017-May-26 05:01N 49°17' W 000°15'0 0.2
2017-May-26 04:31N 49°17' W 000°15'612.2
2017-May-26 04:00N 49°24' W 000°15'918.3
2017-May-26 03:30N 49°32' W 000°19'918.4
2017-May-26 03:00N 49°41' W 000°25'918.3
2017-May-26 02:31N 49°49' W 000°31'918.3
2017-May-26 02:00N 49°57' W 000°36'816.6
2017-May-26 01:31N 50°05' W 000°41'714.4
2017-May-26 01:01N 50°12' W 000°45'714.6
2017-May-26 00:30N 50°19' W 000°48'714.9
2017-May-26 00:01N 50°26' W 000°53'714.6
2017-May-25 23:30N 50°32' W 000°57'715.2
2017-May-25 23:01N 50°40' W 001°00'713.4
2017-May-25 22:31N 50°46' W 001°05'3 6.2
2017-May-25 22:01N 50°49' W 001°06'0 0.0
2017-May-25 21:30N 50°49' W 001°06'0 0.0
2017-May-25 21:01N 50°49' W 001°06'0 0.0
2017-May-25 20:30N 50°49' W 001°06'1 2.2
2017-May-25 20:00N 50°48' W 001°07'713.5
2017-May-25 19:30N 50°43' W 000°59'918.4
2017-May-25 19:00N 50°34' W 000°56'1019.0
2017-May-25 18:30N 50°25' W 000°51'1019.6
2017-May-25 18:00N 50°16' W 000°46'1019.3
2017-May-25 17:30N 50°07' W 000°40'1019.7
2017-May-25 17:00N 49°58' W 000°35'1019.7
2017-May-25 16:30N 49°48' W 000°30'1019.9
2017-May-25 16:00N 49°39' W 000°25'1019.5
2017-May-25 15:30N 49°29' W 000°21'1019.4
2017-May-25 15:01N 49°21' W 000°15'3 6.5
2017-May-25 14:31N 49°17' W 000°15'0 0.0
2017-May-25 13:30N 49°17' W 000°15'0 0.0
2017-May-25 13:00N 49°17' W 000°15'510.4
2017-May-25 12:31N 49°23' W 000°14'1019.1
2017-May-25 12:01N 49°32' W 000°18'1019.3
2017-May-25 11:30N 49°41' W 000°24'1019.6
2017-May-25 11:00N 49°50' W 000°29'1019.9
2017-May-25 10:31N 49°59' W 000°36'918.8
2017-May-25 10:01N 50°08' W 000°40'918.8
2017-May-25 09:30N 50°17' W 000°44'918.5
2017-May-25 09:00N 50°25' W 000°50'918.8
2017-May-25 08:30N 50°34' W 000°56'917.3
2017-May-25 08:00N 50°42' W 001°02'714.0
2017-May-25 07:30N 50°48' W 001°07'1 1.8
2017-May-25 07:00N 50°49' W 001°06'0 0.0
2017-May-25 06:30N 50°49' W 001°06'0 0.0
2017-May-25 06:01N 50°49' W 001°06'0 0.2
2017-May-25 05:31N 50°49' W 001°06'511.0
2017-May-25 05:01N 50°44' W 001°02'713.9
2017-May-25 04:30N 50°37' W 000°58'611.7
2017-May-25 04:00N 50°32' W 000°55'612.0
2017-May-25 03:31N 50°26' W 000°53'611.7
2017-May-25 03:01N 50°21' W 000°49'712.5
2017-May-25 02:26N 50°14' W 000°43'511.6
2017-May-25 01:59N 50°10' W 000°40'611.6
2017-May-25 01:30N 50°05' W 000°37'611.6
2017-May-25 01:00N 49°59' W 000°34'611.5
2017-May-25 00:31N 49°54' W 000°32'611.7
2017-May-25 00:00N 49°48' W 000°30'611.9
2017-May-24 23:31N 49°42' W 000°26'611.8
2017-May-24 23:00N 49°37' W 000°22'611.2
2017-May-24 22:31N 49°32' W 000°18'510.7
2017-May-24 22:00N 49°27' W 000°16'510.4
2017-May-24 21:31N 49°22' W 000°15'5 9.1
2017-May-24 21:00N 49°17' W 000°15'0 0.0
2017-May-24 20:30N 49°17' W 000°15'0 0.0
2017-May-24 20:00N 49°17' W 000°15'0 0.0
2017-May-24 19:30N 49°17' W 000°15'0 0.0
2017-May-24 19:00N 49°17' W 000°15'0 0.0
2017-May-24 18:30N 49°17' W 000°15'0 0.0
2017-May-24 18:00N 49°17' W 000°15'0 0.0
2017-May-24 17:30N 49°17' W 000°15'0 0.0
2017-May-24 17:00N 49°17' W 000°15'0 0.0
2017-May-24 16:30N 49°17' W 000°15'0 0.0
2017-May-24 16:00N 49°17' W 000°15'0 0.0
2017-May-24 15:30N 49°17' W 000°15'0 0.0
2017-May-24 15:00N 49°17' W 000°15'0 0.0
2017-May-24 14:30N 49°17' W 000°15'0 0.0
2017-May-24 13:30N 49°17' W 000°15'0 0.0
2017-May-24 13:00N 49°17' W 000°15'5 9.8
2017-May-24 12:30N 49°22' W 000°14'918.3
2017-May-24 12:01N 49°31' W 000°18'1019.2
2017-May-24 11:30N 49°40' W 000°22'918.9
2017-May-24 11:00N 49°49' W 000°28'1019.3
2017-May-24 10:30N 49°58' W 000°34'1019.6
2017-May-24 10:00N 50°07' W 000°39'1019.8
2017-May-24 09:29N 50°17' W 000°44'1019.9
2017-May-24 08:59N 50°26' W 000°49'1020.1
2017-May-24 08:29N 50°35' W 000°57'918.4
2017-May-24 08:01N 50°43' W 001°03'612.0
2017-May-24 07:30N 50°48' W 001°07'1 1.6
2017-May-24 07:01N 50°49' W 001°06'0 0.0
2017-May-24 06:31N 50°49' W 001°06'0 0.0
2017-May-24 06:01N 50°49' W 001°06'0 0.4
2017-May-24 05:31N 50°49' W 001°06'611.4
2017-May-24 05:00N 50°44' W 001°02'815.5
2017-May-24 04:30N 50°36' W 000°57'713.3
2017-May-24 04:00N 50°30' W 000°55'2911.7
2017-May-24 01:33N 50°03' W 000°38'111.9
2017-May-24 01:28N 50°02' W 000°37'611.7
2017-May-24 00:59N 49°57' W 000°33'611.9
2017-May-24 00:30N 49°52' W 000°30'611.6
2017-May-24 00:00N 49°47' W 000°27'611.5
2017-May-23 23:30N 49°41' W 000°24'611.3
2017-May-23 23:00N 49°36' W 000°21'510.9
2017-May-23 22:30N 49°31' W 000°20'611.0
2017-May-23 22:00N 49°26' W 000°17'510.6
2017-May-23 21:30N 49°20' W 000°14'3 6.3
2017-May-23 21:00N 49°17' W 000°15'0 0.0
2017-May-23 20:30N 49°17' W 000°15'0 0.0
2017-May-23 20:00N 49°17' W 000°15'0 0.0
2017-May-23 19:30N 49°17' W 000°15'4 7.6
2017-May-23 19:00N 49°21' W 000°14'1020.2
2017-May-23 18:30N 49°31' W 000°18'1020.4
2017-May-23 18:00N 49°41' W 000°23'1121.0
2017-May-23 17:30N 49°50' W 000°29'1121.0
2017-May-23 17:00N 50°00' W 000°35'2420.5
2017-May-23 15:51N 50°23' W 000°47'720.0
2017-May-23 15:29N 50°29' W 000°51'919.7
2017-May-23 15:00N 50°38' W 000°58'815.7
2017-May-23 14:31N 50°44' W 001°05'4 4.4
2017-May-23 13:30N 50°49' W 001°06'0 0.0
2017-May-23 13:00N 50°49' W 001°06'0 0.0
2017-May-23 12:30N 50°49' W 001°06'0 0.2
2017-May-23 12:01N 50°49' W 001°06'4 8.8
2017-May-23 11:31N 50°44' W 001°04'917.9
2017-May-23 11:00N 50°36' W 000°58'1020.0
2017-May-23 10:30N 50°27' W 000°54'1020.1
2017-May-23 10:00N 50°17' W 000°48'1120.3
2017-May-23 09:28N 50°07' W 000°42'920.0
2017-May-23 09:00N 49°59' W 000°36'1019.8
2017-May-23 08:30N 49°49' W 000°31'1019.5
2017-May-23 08:01N 49°40' W 000°25'1019.7
2017-May-23 07:30N 49°31' W 000°21'1019.2
2017-May-23 07:00N 49°22' W 000°15'5 9.4
2017-May-23 06:31N 49°17' W 000°15'0 0.0
2017-May-23 06:00N 49°17' W 000°15'0 0.0
2017-May-23 05:30N 49°17' W 000°15'0 0.0
2017-May-23 05:01N 49°17' W 000°15'0 0.2
2017-May-23 04:30N 49°17' W 000°15'713.3
2017-May-23 04:01N 49°24' W 000°16'815.8
2017-May-23 03:31N 49°31' W 000°21'815.7
2017-May-23 03:01N 49°38' W 000°25'815.5
2017-May-23 02:30N 49°46' W 000°27'815.5
2017-May-23 02:00N 49°53' W 000°31'815.1
2017-May-23 01:30N 50°00' W 000°36'714.8
2017-May-23 01:00N 50°07' W 000°40'815.0
2017-May-23 00:30N 50°14' W 000°45'715.1
2017-May-23 00:00N 50°21' W 000°49'815.2
2017-May-22 23:30N 50°28' W 000°53'714.9
2017-May-22 23:01N 50°35' W 000°57'815.1
2017-May-22 22:30N 50°42' W 001°02'713.7
2017-May-22 22:01N 50°48' W 001°07'1 1.6
2017-May-22 21:30N 50°49' W 001°06'0 0.0
2017-May-22 21:00N 50°49' W 001°06'0 0.0
2017-May-22 20:30N 50°49' W 001°06'1 2.4
2017-May-22 20:01N 50°48' W 001°07'815.5
2017-May-22 19:30N 50°41' W 000°60'1019.5
2017-May-22 19:01N 50°32' W 000°54'1019.2
2017-May-22 18:31N 50°23' W 000°48'1919.3
2017-May-22 17:31N 50°05' W 000°38'018.8
2017-May-22 17:30N 50°05' W 000°38'918.8
2017-May-22 17:00N 49°56' W 000°33'1019.2
2017-May-22 16:31N 49°47' W 000°30'1019.1
2017-May-22 16:01N 49°38' W 000°26'1019.0
2017-May-22 15:31N 49°29' W 000°20'918.8
2017-May-22 15:00N 49°20' W 000°15'3 3.0
2017-May-22 14:01N 49°17' W 000°15'0 0.0
2017-May-22 13:31N 49°17' W 000°15'0 0.0
2017-May-22 13:00N 49°17' W 000°15'1 2.1
2017-May-22 12:31N 49°18' W 000°15'917.5
2017-May-22 12:01N 49°27' W 000°17'1019.2
2017-May-22 11:30N 49°36' W 000°23'918.9
2017-May-22 11:01N 49°44' W 000°30'919.0
2017-May-22 10:31N 49°53' W 000°36'918.9
2017-May-22 10:00N 50°01' W 000°42'1019.0
2017-May-22 09:30N 50°10' W 000°47'919.0
2017-May-22 09:01N 50°20' W 000°49'1019.4
2017-May-22 08:31N 50°29' W 000°54'1019.3
2017-May-22 08:01N 50°38' W 000°60'917.5
2017-May-22 07:31N 50°46' W 001°05'3 6.1
2017-May-22 07:01N 50°49' W 001°06'0 0.0
2017-May-22 06:30N 50°49' W 001°06'0 0.0
2017-May-22 06:01N 50°49' W 001°06'0 0.0
2017-May-22 05:31N 50°49' W 001°06'3 7.0
2017-May-22 05:00N 50°45' W 001°05'816.9
2017-May-22 04:31N 50°38' W 000°58'611.1
2017-May-22 04:00N 50°33' W 000°55'510.7
2017-May-22 03:30N 50°28' W 000°51'611.4
2017-May-22 03:00N 50°23' W 000°48'611.8
2017-May-22 02:30N 50°17' W 000°44'611.5
2017-May-22 02:00N 50°12' W 000°41'611.9
2017-May-22 01:30N 50°06' W 000°39'611.9
2017-May-22 01:00N 50°00' W 000°36'612.1
2017-May-22 00:30N 49°55' W 000°33'612.0
2017-May-22 00:00N 49°49' W 000°30'612.1
2017-May-21 23:30N 49°43' W 000°27'612.4
2017-May-21 23:00N 49°38' W 000°23'611.8
2017-May-21 22:30N 49°32' W 000°19'612.0
2017-May-21 22:00N 49°27' W 000°17'611.8
2017-May-21 21:30N 49°21' W 000°14'4 7.2
2017-May-21 21:00N 49°17' W 000°15'0 0.0
2017-May-21 20:30N 49°17' W 000°15'0 0.0
2017-May-21 20:00N 49°17' W 000°15'0 0.0
2017-May-21 19:30N 49°17' W 000°15'3 6.6
2017-May-21 19:00N 49°21' W 000°14'918.9
2017-May-21 18:31N 49°29' W 000°20'918.1
2017-May-21 18:00N 49°38' W 000°25'917.2
2017-May-21 17:30N 49°46' W 000°30'917.3
2017-May-21 17:01N 49°54' W 000°33'1019.1
2017-May-21 16:30N 50°03' W 000°38'918.9
2017-May-21 16:00N 50°12' W 000°43'918.7
2017-May-21 15:30N 50°21' W 000°48'918.5
2017-May-21 15:00N 50°30' W 000°52'918.4
2017-May-21 14:30N 50°38' W 000°57'1211.7
2017-May-21 13:30N 50°49' W 001°06'0 0.0
2017-May-21 13:00N 50°49' W 001°06'0 0.0
2017-May-21 12:30N 50°49' W 001°06'1 1.1
2017-May-21 12:00N 50°49' W 001°07'612.0
2017-May-21 11:31N 50°43' W 001°02'917.3
2017-May-21 11:00N 50°35' W 000°57'918.5
2017-May-21 10:30N 50°27' W 000°51'918.1
2017-May-21 10:00N 50°18' W 000°47'918.6
2017-May-21 09:30N 50°09' W 000°44'1019.3
2017-May-21 09:00N 50°00' W 000°38'1019.2
2017-May-21 08:30N 49°51' W 000°33'1019.1
2017-May-21 08:00N 49°42' W 000°28'1019.4
2017-May-21 07:30N 49°33' W 000°22'1019.2
2017-May-21 07:01N 49°24' W 000°17'714.1
2017-May-21 06:30N 49°17' W 000°15'0 0.0
2017-May-21 06:00N 49°17' W 000°15'0 0.0
2017-May-21 05:30N 49°17' W 000°15'0 0.0
2017-May-21 05:00N 49°17' W 000°15'0 0.1
2017-May-21 04:30N 49°17' W 000°15'611.8
2017-May-21 04:01N 49°23' W 000°16'612.0
2017-May-21 03:31N 49°28' W 000°21'612.3
2017-May-21 03:01N 49°34' W 000°24'612.6
2017-May-21 02:31N 49°40' W 000°27'612.2
2017-May-21 02:00N 49°46' W 000°28'713.5
2017-May-21 01:30N 49°53' W 000°31'714.2
2017-May-21 01:00N 49°59' W 000°35'816.4
2017-May-21 00:30N 50°07' W 000°39'816.7
2017-May-21 00:00N 50°15' W 000°44'916.6
2017-May-20 23:27N 50°23' W 000°50'916.5
2017-May-20 22:53N 50°32' W 000°55'616.5
2017-May-20 22:30N 50°38' W 000°58'816.2
2017-May-20 22:01N 50°45' W 001°05'4 8.0
2017-May-20 21:30N 50°49' W 001°06'0 0.0
2017-May-20 21:00N 50°49' W 001°06'0 0.0
2017-May-20 20:30N 50°49' W 001°06'0 0.2
2017-May-20 20:00N 50°49' W 001°06'5 9.1
2017-May-20 19:30N 50°44' W 001°04'918.1
2017-May-20 19:00N 50°36' W 000°58'1018.7
2017-May-20 18:29N 50°27' W 000°52'2218.7
2017-May-20 17:20N 50°07' W 000°39'619.3
2017-May-20 17:00N 50°01' W 000°35'1019.3
2017-May-20 16:30N 49°52' W 000°30'1019.1
2017-May-20 16:00N 49°44' W 000°24'917.6
2017-May-20 15:30N 49°36' W 000°18'918.0
2017-May-20 15:00N 49°27' W 000°16'817.0
2017-May-20 14:30N 49°18' W 000°15'1 1.1
2017-May-20 13:31N 49°17' W 000°15'0 0.0
2017-May-20 13:00N 49°17' W 000°15'2 4.5
2017-May-20 12:30N 49°20' W 000°14'918.3
2017-May-20 12:00N 49°29' W 000°17'918.6
2017-May-20 11:30N 49°37' W 000°25'918.7
2017-May-20 11:00N 49°46' W 000°28'918.6
2017-May-20 10:30N 49°55' W 000°32'918.3
2017-May-20 10:00N 50°03' W 000°38'3118.3
2017-May-20 08:19N 50°32' W 000°56'618.3
2017-May-20 08:00N 50°37' W 000°59'918.0
2017-May-20 07:31N 50°45' W 001°05'4 7.4
2017-May-20 07:00N 50°49' W 001°06'0 0.0
2017-May-20 06:30N 50°49' W 001°06'0 0.0
2017-May-20 06:00N 50°49' W 001°06'0 0.2
2017-May-20 05:31N 50°49' W 001°06'5 9.3
2017-May-20 05:00N 50°44' W 001°04'816.2
2017-May-20 04:30N 50°37' W 000°57'612.1
2017-May-20 04:00N 50°32' W 000°52'3211.6
2017-May-20 01:15N 50°02' W 000°37'312.0
2017-May-20 00:59N 49°58' W 000°36'511.3
2017-May-20 00:30N 49°53' W 000°34'611.3
2017-May-20 00:00N 49°48' W 000°32'611.4
2017-May-19 23:30N 49°42' W 000°29'611.5
2017-May-19 23:00N 49°37' W 000°27'611.6
2017-May-19 22:30N 49°32' W 000°22'611.8
2017-May-19 22:00N 49°27' W 000°17'611.5
2017-May-19 21:30N 49°21' W 000°15'4 8.0
2017-May-19 21:00N 49°17' W 000°15'0 0.0
2017-May-19 20:30N 49°17' W 000°15'0 0.0
2017-May-19 20:00N 49°17' W 000°15'0 0.0
2017-May-19 19:30N 49°17' W 000°15'3 5.8
2017-May-19 19:00N 49°20' W 000°14'918.6
2017-May-19 18:31N 49°29' W 000°18'816.1
2017-May-19 18:00N 49°37' W 000°22'816.3
2017-May-19 17:31N 49°45' W 000°26'816.8
2017-May-19 17:01N 49°52' W 000°31'1020.6
2017-May-19 16:30N 50°02' W 000°36'2720.3
2017-May-19 15:11N 50°27' W 000°51'419.6
2017-May-19 14:58N 50°31' W 000°53'1717.5
2017-May-19 14:01N 50°46' W 001°05'3 5.1
2017-May-19 13:30N 50°49' W 001°06'0 0.0
2017-May-19 13:00N 50°49' W 001°06'0 0.0
2017-May-19 12:30N 50°49' W 001°06'0 0.4
2017-May-19 12:00N 50°49' W 001°06'510.9
2017-May-19 11:31N 50°44' W 001°03'917.1
2017-May-19 11:00N 50°36' W 000°57'1019.8
2017-May-19 10:30N 50°27' W 000°52'2619.4
2017-May-19 09:10N 50°02' W 000°38'319.6
2017-May-19 09:00N 49°59' W 000°37'1019.6
2017-May-19 08:30N 49°50' W 000°32'1019.6
2017-May-19 08:00N 49°41' W 000°27'1019.4
2017-May-19 07:31N 49°32' W 000°21'1019.8
2017-May-19 07:00N 49°22' W 000°16'510.0
2017-May-19 06:30N 49°17' W 000°15'0 0.0
2017-May-19 06:00N 49°17' W 000°15'0 0.0
2017-May-19 05:30N 49°17' W 000°15'0 0.0
2017-May-19 05:00N 49°17' W 000°15'0 0.2
2017-May-19 04:30N 49°17' W 000°15'714.7
2017-May-19 04:01N 49°25' W 000°15'917.7
2017-May-19 03:30N 49°33' W 000°21'816.7
2017-May-19 03:01N 49°40' W 000°26'916.8
2017-May-19 02:30N 49°48' W 000°30'816.9
2017-May-19 02:00N 49°56' W 000°35'816.8
2017-May-19 01:30N 50°04' W 000°39'2416.7
2017-May-19 00:03N 50°27' W 000°51'216.9
2017-May-18 23:56N 50°29' W 000°53'716.6
2017-May-18 23:31N 50°35' W 000°57'815.9
2017-May-18 23:01N 50°43' W 001°02'613.0
2017-May-18 22:31N 50°48' W 001°07'1 1.3
2017-May-18 22:01N 50°49' W 001°06'0 0.0
2017-May-18 21:30N 50°49' W 001°06'0 0.0
2017-May-18 21:00N 50°49' W 001°06'0 0.0
2017-May-18 20:31N 50°49' W 001°06'1 2.9
2017-May-18 20:01N 50°47' W 001°07'510.9
2017-May-18 19:30N 50°43' W 001°02'918.4
2017-May-18 19:00N 50°34' W 000°57'3619.7
2017-May-18 17:12N 50°00' W 000°38'419.9
2017-May-18 17:00N 49°57' W 000°36'  

Dump ship's entire track history